Time;durP1;ratioP1;P1;durP2;ratioP2;P2;SDS_P1;SDS_P2;PMS_P1;PMS_P2;Temp;Humidity;BMP_temperature;BMP_pressure;BME280_temperature;BME280_humidity;BME280_pressure;Samples;Min_cycle;Max_cycle;Signal;HPM_P1;HPM_P2
2021/06/30 00:00:55;;;;;;;1.05;0.90;;;18.80;91.60;;;;;;4845219;29;20025;-83
2021/06/30 00:03:21;;;;;;;3.45;0.98;;;18.80;91.70;;;;;;4845579;29;20077;-83
2021/06/30 00:05:46;;;;;;;3.95;1.00;;;18.70;91.70;;;;;;4844826;29;20119;-84
2021/06/30 00:08:13;;;;;;;5.65;1.10;;;18.70;91.70;;;;;;4845483;29;20089;-83
2021/06/30 00:10:41;;;;;;;1.33;1.02;;;18.60;91.80;;;;;;4845249;29;20029;-84
2021/06/30 00:13:06;;;;;;;2.30;1.10;;;18.60;92.00;;;;;;4845803;29;20158;-83
2021/06/30 00:15:32;;;;;;;1.80;0.80;;;18.60;92.10;;;;;;4844995;29;20061;-83
2021/06/30 00:17:58;;;;;;;1.77;1.00;;;18.50;92.30;;;;;;4846424;29;20089;-84
2021/06/30 00:20:24;;;;;;;2.90;1.08;;;18.40;92.40;;;;;;4874419;29;20483;-83
2021/06/30 00:22:50;;;;;;;2.45;1.27;;;18.40;92.50;;;;;;4863263;29;20582;-83
2021/06/30 00:25:16;;;;;;;1.75;1.00;;;18.40;92.50;;;;;;4863487;29;20025;-85
2021/06/30 00:27:43;;;;;;;2.85;1.10;;;18.40;92.60;;;;;;4862903;29;20040;-85
2021/06/30 00:30:10;;;;;;;1.70;1.23;;;18.30;92.70;;;;;;4864113;29;20534;-86
2021/06/30 00:32:35;;;;;;;4.80;1.08;;;18.30;92.60;;;;;;4863570;29;20355;-86
2021/06/30 00:35:01;;;;;;;4.85;1.00;;;18.30;92.40;;;;;;4863368;29;20036;-85
2021/06/30 00:37:27;;;;;;;1.77;0.85;;;18.20;92.50;;;;;;4863682;29;20090;-85
2021/06/30 00:39:53;;;;;;;1.10;1.00;;;18.20;92.50;;;;;;4863166;29;20032;-84
2021/06/30 00:42:18;;;;;;;3.55;1.10;;;18.20;92.40;;;;;;4880184;29;20420;-83
2021/06/30 00:44:45;;;;;;;211.75;101.55;;;18.20;92.40;;;;;;4879558;29;20029;-83
2021/06/30 00:47:11;;;;;;;196.50;44.03;;;18.20;92.30;;;;;;4863363;29;20037;-83
2021/06/30 00:49:37;;;;;;;3.58;1.08;;;18.20;92.50;;;;;;4863107;29;20141;-82
2021/06/30 00:52:03;;;;;;;4.75;1.02;;;18.20;92.10;;;;;;4899054;29;20036;-83
2021/06/30 00:54:28;;;;;;;3.38;0.93;;;18.20;92.00;;;;;;4897650;29;20141;-85
2021/06/30 00:56:55;;;;;;;2.85;0.85;;;18.20;91.70;;;;;;4896954;29;20068;-85
2021/06/30 00:59:21;;;;;;;3.08;0.68;;;18.20;91.60;;;;;;4897535;29;20044;-85
2021/06/30 01:01:47;;;;;;;1.20;0.65;;;18.20;91.50;;;;;;4897132;29;20521;-85
2021/06/30 01:04:13;;;;;;;3.25;0.68;;;18.20;91.40;;;;;;4897427;29;20462;-84
2021/06/30 01:06:38;;;;;;;2.20;0.60;;;18.10;91.30;;;;;;4896908;29;20021;-84
2021/06/30 01:09:06;;;;;;;3.00;0.80;;;18.20;91.00;;;;;;4898394;29;20025;-84
2021/06/30 01:11:32;;;;;;;2.17;0.40;;;18.10;91.00;;;;;;4897118;29;20478;-85
2021/06/30 01:13:58;;;;;;;2.75;0.60;;;18.10;90.70;;;;;;4897704;29;20025;-84
2021/06/30 01:16:24;;;;;;;2.15;0.50;;;18.00;90.60;;;;;;4897542;29;20068;-84
2021/06/30 01:18:50;;;;;;;3.22;0.40;;;18.00;90.70;;;;;;4897149;29;20127;-84
2021/06/30 01:21:15;;;;;;;1.75;0.40;;;18.00;90.60;;;;;;4896878;29;20036;-83
2021/06/30 01:23:43;;;;;;;1.27;0.30;;;18.00;90.40;;;;;;4898132;29;20037;-84
2021/06/30 01:26:09;;;;;;;0.85;0.55;;;17.90;90.40;;;;;;4897306;29;20064;-84
2021/06/30 01:28:36;;;;;;;2.83;0.93;;;17.90;90.30;;;;;;4897075;29;20051;-86
2021/06/30 01:31:02;;;;;;;2.58;0.40;;;17.80;90.40;;;;;;4898652;29;20108;-84
2021/06/30 01:33:28;;;;;;;0.75;0.40;;;17.80;90.30;;;;;;4896922;29;20542;-84
2021/06/30 01:35:55;;;;;;;3.03;0.30;;;17.80;90.10;;;;;;4896673;29;20064;-84
2021/06/30 01:38:25;;;;;;;0.50;0.30;;;17.80;90.10;;;;;;4898275;29;20033;-85
2021/06/30 01:40:53;;;;;;;0.77;0.32;;;17.70;90.10;;;;;;4898023;29;20264;-85
2021/06/30 01:43:19;;;;;;;2.28;0.30;;;17.70;90.10;;;;;;4897282;29;20121;-86
2021/06/30 01:45:44;;;;;;;0.40;0.20;;;17.70;90.00;;;;;;4896290;29;20033;-86
2021/06/30 01:48:11;;;;;;;0.73;0.15;;;17.60;89.50;;;;;;4894041;29;20044;-86
2021/06/30 01:50:37;;;;;;;0.68;0.20;;;17.60;89.20;;;;;;4910907;29;20052;-87
2021/06/30 01:53:04;;;;;;;0.73;0.32;;;17.60;89.50;;;;;;4884814;29;20127;-86
2021/06/30 01:55:31;;;;;;;2.38;0.20;;;17.60;89.20;;;;;;4900706;29;20025;-86
2021/06/30 01:57:57;;;;;;;1.13;0.30;;;17.60;88.80;;;;;;4901575;29;20035;-86
2021/06/30 02:00:23;;;;;;;0.20;0.20;;;17.60;89.60;;;;;;4884837;29;20020;-86
2021/06/30 02:02:49;;;;;;;0.77;0.30;;;17.60;89.00;;;;;;4884661;29;20024;-86
2021/06/30 02:05:20;;;;;;;1.05;0.30;;;17.60;89.00;;;;;;4884775;29;20111;-86
2021/06/30 02:07:51;;;;;;;0.50;0.30;;;17.60;88.90;;;;;;4900812;29;20036;-85
2021/06/30 02:10:17;;;;;;;0.20;0.10;;;17.60;88.50;;;;;;4884684;29;20029;-85
2021/06/30 02:12:45;;;;;;;1.58;0.20;;;17.60;88.70;;;;;;4901142;29;20055;-84
2021/06/30 02:15:14;;;;;;;0.20;0.20;;;17.50;88.90;;;;;;4884802;29;20029;-84
2021/06/30 02:17:40;;;;;;;3.60;0.40;;;17.50;88.90;;;;;;4899774;29;20033;-84
2021/06/30 02:20:09;;;;;;;1.00;0.30;;;17.50;89.10;;;;;;4884679;29;20060;-84
2021/06/30 02:22:38;;;;;;;2.20;0.30;;;17.50;88.90;;;;;;4884013;29;20123;-85
2021/06/30 02:25:06;;;;;;;1.20;0.30;;;17.50;89.20;;;;;;4883967;29;20029;-85
2021/06/30 02:27:32;;;;;;;2.90;0.30;;;17.50;88.80;;;;;;4900914;29;20039;-85
2021/06/30 02:29:58;;;;;;;1.95;0.22;;;17.50;89.00;;;;;;4883784;29;20056;-85
2021/06/30 02:32:23;;;;;;;3.95;0.30;;;17.60;89.50;;;;;;4884122;29;20168;-84
2021/06/30 02:34:49;;;;;;;1.75;0.30;;;17.50;89.80;;;;;;4900549;29;20032;-84
2021/06/30 02:37:15;;;;;;;2.00;0.35;;;17.50;90.30;;;;;;4884303;29;20481;-85
2021/06/30 02:39:40;;;;;;;1.08;0.30;;;17.50;90.40;;;;;;4883556;29;20028;-85
2021/06/30 02:42:06;;;;;;;2.05;0.30;;;17.40;90.50;;;;;;4883708;29;20032;-84
2021/06/30 02:44:32;;;;;;;2.67;0.70;;;17.40;90.50;;;;;;4900600;29;20059;-84
2021/06/30 02:46:58;;;;;;;3.40;0.30;;;17.40;90.70;;;;;;4883231;29;20378;-83
2021/06/30 02:49:23;;;;;;;1.35;0.20;;;17.30;90.80;;;;;;4883981;29;20036;-84
2021/06/30 02:51:49;;;;;;;2.30;0.40;;;17.30;90.80;;;;;;4882429;29;20512;-84
2021/06/30 02:54:15;;;;;;;0.43;0.20;;;17.30;90.70;;;;;;4898953;29;20060;-85
2021/06/30 02:56:40;;;;;;;2.10;0.20;;;17.20;90.70;;;;;;4899873;29;20028;-86
2021/06/30 02:59:06;;;;;;;0.70;0.30;;;17.20;90.70;;;;;;4899339;29;20057;-85
2021/06/30 03:01:32;;;;;;;1.40;0.20;;;17.10;90.70;;;;;;4891762;29;20028;-84
2021/06/30 03:03:57;;;;;;;0.40;0.20;;;17.00;90.80;;;;;;4899609;29;20031;-84
2021/06/30 03:06:23;;;;;;;3.78;0.30;;;16.90;91.00;;;;;;4899852;29;20056;-84
2021/06/30 03:08:50;;;;;;;0.73;0.15;;;16.80;91.00;;;;;;4899321;29;20386;-83
2021/06/30 03:11:16;;;;;;;3.58;0.20;;;16.80;91.20;;;;;;4893033;29;20025;-84
2021/06/30 03:13:42;;;;;;;2.60;0.30;;;16.80;91.30;;;;;;4882889;29;20025;-84
2021/06/30 03:16:07;;;;;;;0.40;0.20;;;16.70;91.50;;;;;;4899864;29;20470;-84
2021/06/30 03:18:33;;;;;;;0.32;0.30;;;16.70;91.50;;;;;;4900492;29;20028;-84
2021/06/30 03:21:00;;;;;;;2.25;0.35;;;16.70;91.50;;;;;;4883570;29;20113;-83
2021/06/30 03:23:26;;;;;;;0.20;0.20;;;16.70;91.70;;;;;;4900149;29;20150;-84
2021/06/30 03:25:52;;;;;;;0.75;0.30;;;16.70;91.80;;;;;;4898293;29;20482;-83
2021/06/30 03:28:18;;;;;;;0.20;0.20;;;16.60;91.80;;;;;;4883237;29;20458;-83
2021/06/30 03:30:43;;;;;;;0.40;0.20;;;16.60;92.00;;;;;;4896528;29;20080;-84
2021/06/30 03:33:09;;;;;;;0.40;0.30;;;16.50;92.10;;;;;;4883283;29;20365;-84
2021/06/30 03:35:35;;;;;;;1.65;0.50;;;16.60;92.20;;;;;;4883165;29;20033;-83
2021/06/30 03:38:01;;;;;;;1.60;0.30;;;16.50;92.10;;;;;;4882316;29;20458;-83
2021/06/30 03:40:27;;;;;;;1.38;0.25;;;16.50;92.20;;;;;;4899357;29;20056;-82
2021/06/30 03:42:52;;;;;;;1.17;0.22;;;16.50;92.30;;;;;;4898945;29;20039;-83
2021/06/30 03:45:18;;;;;;;2.10;0.30;;;16.50;92.20;;;;;;4882311;29;20033;-83
2021/06/30 03:47:44;;;;;;;0.45;0.20;;;16.40;92.10;;;;;;4897479;29;20492;-83
2021/06/30 03:50:10;;;;;;;1.75;0.20;;;16.40;92.10;;;;;;4882271;29;20061;-83
2021/06/30 03:52:35;;;;;;;0.95;0.50;;;16.40;92.10;;;;;;4899329;29;20043;-83
2021/06/30 03:55:02;;;;;;;1.77;0.22;;;16.40;92.00;;;;;;4899146;29;20025;-82
2021/06/30 03:57:28;;;;;;;0.63;0.15;;;16.40;91.80;;;;;;4898109;29;20060;-82
2021/06/30 03:59:53;;;;;;;0.43;0.30;;;16.40;91.80;;;;;;4897780;29;20474;-82
2021/06/30 04:02:19;;;;;;;0.45;0.25;;;16.40;91.70;;;;;;4883950;29;20035;-83
2021/06/30 04:04:45;;;;;;;0.60;0.15;;;16.40;91.70;;;;;;4882088;29;20041;-84
2021/06/30 04:07:12;;;;;;;0.50;0.10;;;16.30;91.50;;;;;;4899112;29;20036;-83
2021/06/30 04:09:37;;;;;;;2.08;0.20;;;16.30;91.60;;;;;;4881639;29;20028;-85
2021/06/30 04:12:03;;;;;;;0.20;0.20;;;16.30;91.60;;;;;;4882115;29;20088;-85
2021/06/30 04:14:29;;;;;;;1.50;0.20;;;16.40;91.60;;;;;;4897993;29;20032;-84
2021/06/30 04:16:55;;;;;;;2.97;0.40;;;16.40;91.60;;;;;;4898588;29;20537;-84
2021/06/30 04:19:21;;;;;;;0.22;0.22;;;16.40;91.30;;;;;;4898691;29;20522;-84
2021/06/30 04:21:48;;;;;;;0.98;0.10;;;16.40;91.30;;;;;;4881914;29;20032;-83
2021/06/30 04:24:13;;;;;;;1.10;0.20;;;16.30;91.20;;;;;;4882270;29;20033;-85
2021/06/30 04:26:40;;;;;;;0.57;0.20;;;16.30;91.20;;;;;;4896090;29;20052;-83
2021/06/30 04:29:06;;;;;;;0.52;0.20;;;16.30;91.30;;;;;;4898489;29;20067;-83
2021/06/30 04:31:32;;;;;;;0.22;0.20;;;16.30;91.50;;;;;;4902102;29;20068;-83
2021/06/30 04:33:58;;;;;;;0.47;0.28;;;16.30;91.40;;;;;;4863006;29;20033;-83
2021/06/30 04:36:24;;;;;;;2.13;0.20;;;16.30;91.50;;;;;;4863949;29;20037;-82
2021/06/30 04:38:49;;;;;;;0.52;0.20;;;16.30;91.50;;;;;;4863365;29;20474;-83
2021/06/30 04:41:15;;;;;;;0.20;0.20;;;16.30;91.50;;;;;;4872204;29;20041;-83
2021/06/30 04:43:40;;;;;;;0.20;0.20;;;16.30;91.50;;;;;;4898687;29;20052;-83
2021/06/30 04:46:07;;;;;;;0.57;0.22;;;16.30;91.50;;;;;;4913316;29;20060;-83
2021/06/30 04:48:34;;;;;;;0.98;0.38;;;16.30;91.50;;;;;;4913385;29;20498;-83
2021/06/30 04:51:03;;;;;;;2.08;0.30;;;16.30;91.40;;;;;;4891315;29;20105;-83
2021/06/30 04:53:29;;;;;;;0.55;0.20;;;16.40;91.30;;;;;;4863318;29;20041;-82
2021/06/30 04:55:55;;;;;;;0.95;0.30;;;16.40;91.30;;;;;;4879497;29;20071;-82
2021/06/30 04:58:23;;;;;;;1.50;0.20;;;16.40;91.10;;;;;;4863703;29;20060;-82
2021/06/30 05:00:53;;;;;;;0.40;0.17;;;16.40;91.00;;;;;;4862972;29;20025;-82
2021/06/30 05:03:18;;;;;;;0.60;0.25;;;16.40;91.10;;;;;;4879908;29;20028;-82
2021/06/30 05:05:44;;;;;;;0.77;0.22;;;16.40;91.10;;;;;;4863111;29;20473;-82
2021/06/30 05:08:09;;;;;;;0.60;0.30;;;16.50;91.10;;;;;;4879905;29;20033;-83
2021/06/30 05:10:35;;;;;;;0.82;0.20;;;16.50;91.00;;;;;;4863512;29;20093;-83
2021/06/30 05:13:01;;;;;;;1.25;0.30;;;16.50;91.00;;;;;;4863045;29;20029;-85
2021/06/30 05:15:27;;;;;;;0.25;0.20;;;16.50;90.90;;;;;;4895072;29;20050;-83
2021/06/30 05:17:53;;;;;;;0.45;0.20;;;16.50;90.80;;;;;;4873445;29;20450;-85
2021/06/30 05:20:18;;;;;;;3.47;0.30;;;16.50;90.90;;;;;;4898474;29;20028;-83
2021/06/30 05:22:44;;;;;;;0.45;0.30;;;16.60;90.80;;;;;;4875736;29;20515;-82
2021/06/30 05:25:10;;;;;;;3.83;0.30;;;16.60;90.30;;;;;;4875172;29;20024;-84
2021/06/30 05:27:36;;;;;;;1.75;0.35;;;16.60;90.40;;;;;;4884617;29;20477;-83
2021/06/30 05:30:03;;;;;;;1.27;0.28;;;16.60;90.50;;;;;;4913513;29;20049;-83
2021/06/30 05:32:28;;;;;;;1.05;0.35;;;16.60;90.60;;;;;;4901379;29;20039;-83
2021/06/30 05:34:54;;;;;;;0.77;0.30;;;16.60;90.50;;;;;;4884569;29;20107;-83
2021/06/30 05:37:20;;;;;;;0.98;0.20;;;16.60;90.50;;;;;;4901944;29;20035;-82
2021/06/30 05:39:45;;;;;;;0.88;0.20;;;16.60;90.30;;;;;;4900796;29;20029;-84
2021/06/30 05:42:11;;;;;;;1.98;0.40;;;16.70;90.40;;;;;;4916121;29;20413;-83
2021/06/30 05:44:36;;;;;;;1.45;0.30;;;16.70;90.20;;;;;;4885082;29;20028;-80
2021/06/30 05:47:02;;;;;;;0.45;0.30;;;16.80;90.30;;;;;;4883842;29;20039;-83
2021/06/30 05:49:28;;;;;;;0.82;0.30;;;16.90;90.10;;;;;;4885099;29;20036;-83
2021/06/30 05:51:53;;;;;;;1.15;0.30;;;17.00;89.90;;;;;;4884297;29;20390;-83
2021/06/30 05:54:19;;;;;;;3.28;0.40;;;17.00;89.20;;;;;;4884972;29;20119;-83
2021/06/30 05:56:45;;;;;;;1.02;0.30;;;17.00;89.50;;;;;;4901198;29;20039;-83
2021/06/30 05:59:10;;;;;;;2.20;0.35;;;17.00;88.90;;;;;;4901364;29;20029;-83
2021/06/30 06:01:36;;;;;;;1.52;0.40;;;17.10;89.20;;;;;;4884770;29;20514;-83
2021/06/30 06:04:02;;;;;;;1.05;0.20;;;17.10;88.90;;;;;;4884351;29;20544;-83
2021/06/30 06:06:28;;;;;;;1.65;0.30;;;17.10;88.90;;;;;;4884905;29;20036;-83
2021/06/30 06:08:54;;;;;;;1.15;0.15;;;17.10;88.50;;;;;;4900819;29;20032;-83
2021/06/30 06:11:20;;;;;;;0.40;0.40;;;17.20;89.00;;;;;;4884700;29;20032;-83
2021/06/30 06:13:46;;;;;;;0.55;0.20;;;17.20;88.80;;;;;;4878453;29;20116;-84
2021/06/30 06:16:16;;;;;;;0.20;0.15;;;17.30;88.90;;;;;;4865787;29;20029;-83
2021/06/30 06:18:42;;;;;;;1.07;0.50;;;17.30;88.80;;;;;;4897508;29;20038;-83
2021/06/30 06:21:08;;;;;;;1.50;0.28;;;17.20;88.70;;;;;;4901172;29;20051;-83
2021/06/30 06:23:34;;;;;;;2.35;0.35;;;17.30;88.50;;;;;;4901080;29;20029;-83
2021/06/30 06:26:00;;;;;;;2.53;0.25;;;17.30;88.30;;;;;;4883671;29;20470;-82
2021/06/30 06:28:32;;;;;;;2.47;0.40;;;17.30;88.50;;;;;;4901259;29;20025;-83
2021/06/30 06:30:58;;;;;;;2.28;0.35;;;17.40;87.80;;;;;;4883849;29;20021;-83
2021/06/30 06:33:24;;;;;;;0.22;0.20;;;17.30;87.80;;;;;;4883639;29;20028;-82
2021/06/30 06:35:49;;;;;;;1.48;0.28;;;17.40;88.20;;;;;;4883897;29;20027;-83
2021/06/30 06:38:16;;;;;;;2.15;0.40;;;17.40;87.20;;;;;;4900404;29;20040;-83
2021/06/30 06:40:42;;;;;;;1.40;0.28;;;17.50;86.90;;;;;;4900700;29;20028;-81
2021/06/30 06:43:08;;;;;;;2.92;0.40;;;17.60;86.80;;;;;;4883476;29;20397;-82
2021/06/30 06:45:34;;;;;;;1.40;0.20;;;17.60;86.50;;;;;;4900863;29;20035;-81
2021/06/30 06:48:00;;;;;;;0.40;0.30;;;17.60;86.20;;;;;;4898158;29;20032;-81
2021/06/30 06:50:26;;;;;;;0.47;0.22;;;17.70;86.90;;;;;;4896242;29;20139;-82
2021/06/30 06:52:52;;;;;;;1.83;0.30;;;17.60;86.70;;;;;;4883582;29;20423;-82
2021/06/30 06:55:18;;;;;;;0.77;0.30;;;17.70;86.70;;;;;;4883758;29;20031;-81
2021/06/30 06:57:44;;;;;;;1.70;0.30;;;17.70;86.60;;;;;;4883540;29;20029;-82
2021/06/30 07:00:11;;;;;;;3.58;0.45;;;17.70;86.50;;;;;;4883090;29;20020;-82
2021/06/30 07:02:36;;;;;;;0.63;0.20;;;17.70;86.70;;;;;;4883515;29;20029;-83
2021/06/30 07:05:03;;;;;;;0.65;0.40;;;17.70;87.10;;;;;;4882774;29;20128;-81
2021/06/30 07:07:28;;;;;;;2.10;0.50;;;17.80;86.80;;;;;;4883348;29;20426;-81
2021/06/30 07:09:56;;;;;;;0.40;0.30;;;17.80;86.80;;;;;;4882886;29;20028;-83
2021/06/30 07:12:22;;;;;;;2.05;0.30;;;17.80;88.00;;;;;;4883166;29;20125;-81
2021/06/30 07:14:48;;;;;;;0.85;0.35;;;17.80;87.60;;;;;;4882627;29;20040;-83
2021/06/30 07:17:14;;;;;;;0.63;0.22;;;17.70;86.20;;;;;;4899272;29;20043;-81
2021/06/30 07:19:39;;;;;;;0.20;0.20;;;17.80;86.50;;;;;;4882135;29;20079;-82
2021/06/30 07:22:05;;;;;;;1.75;0.30;;;17.70;85.90;;;;;;4899244;29;20044;-81
2021/06/30 07:24:30;;;;;;;0.50;0.40;;;17.60;86.20;;;;;;4899378;29;20020;-81
2021/06/30 07:26:56;;;;;;;0.63;0.40;;;17.60;86.60;;;;;;4898808;29;20049;-81
2021/06/30 07:29:22;;;;;;;0.35;0.30;;;17.60;87.00;;;;;;4879208;29;20462;-81
2021/06/30 07:31:48;;;;;;;1.40;0.50;;;17.60;87.80;;;;;;4881699;29;20031;-83
2021/06/30 07:34:14;;;;;;;3.17;0.40;;;17.50;88.00;;;;;;4898757;29;20100;-81
2021/06/30 07:36:39;;;;;;;0.80;0.32;;;17.40;88.10;;;;;;4880962;29;20024;-82
2021/06/30 07:39:07;;;;;;;1.73;0.35;;;17.40;88.30;;;;;;4881068;29;20041;-82
2021/06/30 07:41:33;;;;;;;0.40;0.30;;;17.50;88.80;;;;;;4896979;29;20024;-83
2021/06/30 07:44:00;;;;;;;1.13;0.32;;;17.40;89.20;;;;;;4881256;29;20347;-83
2021/06/30 07:46:26;;;;;;;0.38;0.30;;;17.30;89.30;;;;;;4882256;29;20028;-82
2021/06/30 07:48:52;;;;;;;0.88;0.40;;;17.20;89.70;;;;;;4898959;29;20024;-82
2021/06/30 07:51:18;;;;;;;0.30;0.30;;;17.20;90.00;;;;;;4877633;29;20084;-81
2021/06/30 07:53:44;;;;;;;0.63;0.20;;;17.10;90.20;;;;;;4882702;29;20021;-81
2021/06/30 07:56:11;;;;;;;0.40;0.35;;;17.10;90.50;;;;;;4881732;29;20362;-83
2021/06/30 07:58:38;;;;;;;1.15;0.22;;;17.00;90.50;;;;;;4882077;29;20021;-81
2021/06/30 08:01:04;;;;;;;1.05;0.30;;;17.00;90.50;;;;;;4898023;29;20025;-81
2021/06/30 08:03:29;;;;;;;0.45;0.20;;;17.00;90.60;;;;;;4877068;29;20469;-83
2021/06/30 08:05:55;;;;;;;0.40;0.30;;;17.00;90.70;;;;;;4881652;29;20472;-84
2021/06/30 08:08:21;;;;;;;0.55;0.52;;;16.90;91.00;;;;;;4882091;29;20518;-83
2021/06/30 08:10:47;;;;;;;1.05;0.60;;;16.90;91.20;;;;;;4879513;29;20027;-83
2021/06/30 08:13:13;;;;;;;1.13;0.63;;;16.80;91.50;;;;;;4881887;29;20025;-83
2021/06/30 08:15:38;;;;;;;2.70;0.50;;;16.80;91.80;;;;;;4913635;29;20385;-83
2021/06/30 08:18:04;;;;;;;3.15;0.40;;;16.70;92.00;;;;;;4911982;29;20065;-83
2021/06/30 08:20:30;;;;;;;1.38;0.30;;;16.60;92.10;;;;;;4880746;29;20103;-84
2021/06/30 08:22:55;;;;;;;1.25;0.30;;;16.60;92.30;;;;;;4913603;29;20041;-85
2021/06/30 08:25:23;;;;;;;1.35;0.25;;;16.50;92.40;;;;;;4912831;29;20450;-83
2021/06/30 08:27:50;;;;;;;1.25;0.30;;;16.40;92.40;;;;;;4892464;29;20029;-85
2021/06/30 08:30:16;;;;;;;1.02;0.40;;;16.40;92.80;;;;;;4896870;29;20051;-86
2021/06/30 08:32:43;;;;;;;0.68;0.40;;;16.40;92.90;;;;;;4893513;29;20096;-84
2021/06/30 08:35:10;;;;;;;0.52;0.25;;;16.40;92.90;;;;;;4895634;29;20075;-88
2021/06/30 08:37:40;;;;;;;1.85;0.50;;;16.30;93.00;;;;;;4869105;29;20074;-82
2021/06/30 08:40:11;;;;;;;0.98;0.40;;;16.30;93.00;;;;;;4881685;29;20068;-82
2021/06/30 08:42:37;;;;;;;1.13;0.50;;;16.30;93.10;;;;;;4881912;29;20056;-82
2021/06/30 08:45:03;;;;;;;2.28;0.30;;;16.30;93.10;;;;;;4879824;29;20076;-83
2021/06/30 08:47:35;;;;;;;2.03;0.50;;;16.30;93.20;;;;;;4881504;29;20103;-86
2021/06/30 08:50:02;;;;;;;;;;;16.30;93.60;;;;;;4897233;29;20053;-83
2021/06/30 08:52:28;;;;;;;0.82;0.40;;;16.40;93.40;;;;;;4881643;29;19907;-83
2021/06/30 08:54:57;;;;;;;0.63;0.43;;;16.40;92.90;;;;;;4880607;29;20029;-84
2021/06/30 08:57:24;;;;;;;1.60;0.47;;;16.40;93.00;;;;;;4902090;29;20020;-84
2021/06/30 08:59:50;;;;;;;3.20;0.55;;;16.40;93.10;;;;;;4881118;29;20035;-84
2021/06/30 09:02:15;;;;;;;1.23;0.40;;;16.40;93.00;;;;;;4884366;29;20028;-83
2021/06/30 09:04:43;;;;;;;1.08;0.40;;;16.40;93.00;;;;;;4871350;29;20081;-83
2021/06/30 09:07:09;;;;;;;1.73;0.57;;;16.40;93.20;;;;;;4884246;29;20034;-86
2021/06/30 09:09:42;;;;;;;1.42;0.47;;;16.40;93.20;;;;;;4880220;29;20369;-83
2021/06/30 09:12:08;;;;;;;2.90;0.40;;;16.40;93.20;;;;;;4899955;29;20074;-84
2021/06/30 09:14:40;;;;;;;1.65;0.50;;;16.40;92.90;;;;;;4884923;29;20020;-84
2021/06/30 09:19:45;;;;;;;0.60;0.40;;;16.50;93.10;;;;;;4893764;29;20048;-87
2021/06/30 09:22:11;;;;;;;;;;;16.50;93.00;;;;;;4881564;29;20032;-87
2021/06/30 09:24:37;;;;;;;1.55;0.50;;;16.60;93.10;;;;;;4885348;29;19934;-88
2021/06/30 09:27:06;;;;;;;0.93;0.50;;;16.60;93.20;;;;;;4886086;29;20478;-86
2021/06/30 09:29:32;;;;;;;2.05;0.50;;;16.70;92.90;;;;;;4886759;29;20056;-86
2021/06/30 09:31:58;;;;;;;1.38;0.52;;;16.70;92.70;;;;;;4884174;29;20040;-85
2021/06/30 09:34:25;;;;;;;2.45;0.55;;;16.70;92.70;;;;;;4872661;29;20088;-87
2021/06/30 09:36:55;;;;;;;2.47;0.40;;;16.80;92.70;;;;;;4881766;29;20028;-85
2021/06/30 09:39:22;;;;;;;0.98;0.47;;;16.90;92.50;;;;;;4885496;29;20028;-85
2021/06/30 09:41:49;;;;;;;0.80;0.40;;;16.90;92.70;;;;;;4884558;29;20028;-86
2021/06/30 09:44:18;;;;;;;0.98;0.43;;;17.00;92.40;;;;;;4883073;29;20032;-84
2021/06/30 09:46:45;;;;;;;1.80;0.40;;;17.20;91.70;;;;;;4885020;29;20028;-85
2021/06/30 09:49:14;;;;;;;1.05;0.30;;;17.30;91.80;;;;;;4884229;29;20509;-86
2021/06/30 09:51:41;;;;;;;1.73;0.40;;;17.50;91.90;;;;;;4885169;29;20143;-86
2021/06/30 09:54:10;;;;;;;0.50;0.32;;;17.50;90.70;;;;;;4884451;29;20031;-82
2021/06/30 09:56:52;;;;;;;1.27;0.40;;;17.60;91.00;;;;;;4884799;29;20037;-83
2021/06/30 09:59:33;;;;;;;0.68;0.45;;;17.80;91.20;;;;;;4881042;29;20033;-81
2021/06/30 10:02:01;;;;;;;0.93;0.37;;;17.80;90.50;;;;;;4874254;29;20458;-82
2021/06/30 10:04:36;;;;;;;0.88;0.50;;;17.90;90.40;;;;;;4901554;29;20048;-82
2021/06/30 10:07:03;;;;;;;0.73;0.57;;;18.00;90.70;;;;;;4882735;29;20020;-82
2021/06/30 10:09:29;;;;;;;0.50;0.35;;;18.00;90.50;;;;;;4881110;29;20343;-84
2021/06/30 10:12:00;;;;;;;1.85;0.50;;;17.90;90.00;;;;;;4883845;29;20052;-84
2021/06/30 10:14:27;;;;;;;0.90;0.40;;;17.80;89.10;;;;;;4901097;29;20108;-84
2021/06/30 10:16:53;;;;;;;2.10;0.38;;;18.00;90.00;;;;;;4883921;29;20048;-83
2021/06/30 10:19:20;;;;;;;1.25;0.40;;;18.10;89.10;;;;;;4884069;29;20100;-85
2021/06/30 10:21:46;;;;;;;0.73;0.50;;;18.20;89.90;;;;;;4884337;29;20037;-85
2021/06/30 10:24:17;;;;;;;0.20;0.20;;;18.30;87.60;;;;;;4878187;29;20085;-82
2021/06/30 10:26:43;;;;;;;3.30;0.43;;;18.30;88.60;;;;;;4884048;29;20060;-79
2021/06/30 10:29:09;;;;;;;2.60;0.40;;;18.40;88.00;;;;;;4884729;29;20068;-86
2021/06/30 10:31:36;;;;;;;0.88;0.40;;;18.30;86.80;;;;;;4900793;29;20021;-86
2021/06/30 10:34:11;;;;;;;0.98;0.47;;;18.20;87.80;;;;;;4874350;29;20057;-86
2021/06/30 10:36:51;;;;;;;1.65;0.40;;;18.30;88.60;;;;;;4880545;29;20032;-93
2021/06/30 10:39:41;;;;;;;1.10;0.40;;;18.20;86.60;;;;;;4883858;29;20486;-84
2021/06/30 10:42:28;;;;;;;1.20;0.20;;;18.20;87.20;;;;;;4872904;29;20041;-87
2021/06/30 10:44:57;;;;;;;1.75;0.50;;;18.20;85.50;;;;;;4882170;29;20092;-87
2021/06/30 10:47:35;;;;;;;0.85;0.40;;;18.30;86.10;;;;;;4884822;29;20044;-89
2021/06/30 10:50:22;;;;;;;1.00;0.40;;;18.40;85.30;;;;;;4874271;29;20144;-89
2021/06/30 10:53:25;;;;;;;1.80;0.50;;;18.60;87.30;;;;;;4896995;29;20029;-86
2021/06/30 10:55:52;;;;;;;1.30;0.30;;;18.80;85.50;;;;;;4872642;29;20541;-87
2021/06/30 10:58:24;;;;;;;1.50;0.30;;;19.00;84.20;;;;;;4883731;29;20056;-88
2021/06/30 11:01:04;;;;;;;1.55;0.50;;;19.10;83.70;;;;;;4883457;29;20029;-88
2021/06/30 11:03:47;;;;;;;2.15;0.57;;;19.20;83.70;;;;;;4900281;29;20052;-85
2021/06/30 11:06:31;;;;;;;0.40;0.30;;;19.40;84.50;;;;;;4883256;29;20794;-83
2021/06/30 11:09:05;;;;;;;0.50;0.50;;;19.30;81.50;;;;;;4901218;29;20072;-88
2021/06/30 11:11:34;;;;;;;1.08;0.30;;;19.10;81.80;;;;;;4903067;29;20393;-90
2021/06/30 11:14:05;;;;;;;0.40;0.20;;;19.00;81.10;;;;;;4902534;29;20071;-88
2021/06/30 11:16:39;;;;;;;1.30;0.30;;;19.00;83.20;;;;;;4884527;29;20067;-88
2021/06/30 11:19:31;;;;;;;3.00;0.40;;;18.80;82.70;;;;;;4885433;29;20038;-90
2021/06/30 11:21:59;;;;;;;2.33;0.60;;;18.80;83.80;;;;;;4885174;29;20478;-85
2021/06/30 11:24:34;;;;;;;0.90;0.55;;;18.90;83.30;;;;;;4879263;29;20029;-85
2021/06/30 11:27:11;;;;;;;0.52;0.40;;;19.00;82.60;;;;;;4882400;29;20025;-87
2021/06/30 11:29:55;;;;;;;0.50;0.40;;;19.00;82.30;;;;;;4882957;29;20059;-86
2021/06/30 11:32:36;;;;;;;0.30;0.30;;;19.00;81.00;;;;;;4883592;29;20033;-86
2021/06/30 11:35:20;;;;;;;0.50;0.30;;;19.00;80.30;;;;;;4881859;29;20068;-85
2021/06/30 11:37:54;;;;;;;0.30;0.30;;;18.80;80.50;;;;;;4881535;29;20131;-81
2021/06/30 11:40:34;;;;;;;0.30;0.20;;;18.90;81.20;;;;;;4882413;29;20100;-82
2021/06/30 11:43:01;;;;;;;0.85;0.30;;;19.00;79.70;;;;;;4882723;29;20071;-81
2021/06/30 11:45:30;;;;;;;107.35;59.55;;;19.10;79.20;;;;;;4882637;29;20047;-82
2021/06/30 11:48:01;;;;;;;4.50;3.85;;;19.20;79.20;;;;;;4899658;29;20036;-84
2021/06/30 11:50:29;;;;;;;2.33;2.00;;;19.40;79.10;;;;;;4886793;29;20045;-82
2021/06/30 11:52:58;;;;;;;1.10;0.70;;;19.50;78.90;;;;;;4902230;29;20036;-86
2021/06/30 11:55:24;;;;;;;1.65;0.60;;;19.50;77.00;;;;;;4885408;29;20076;-85
2021/06/30 11:58:01;;;;;;;2.47;0.47;;;19.70;76.60;;;;;;4883270;29;20033;-84
2021/06/30 12:00:30;;;;;;;1.30;0.30;;;19.70;77.90;;;;;;4901278;29;20080;-85
2021/06/30 12:02:58;;;;;;;0.47;0.35;;;19.80;77.50;;;;;;4901584;29;20029;-86
2021/06/30 12:05:26;;;;;;;1.50;0.40;;;19.80;78.60;;;;;;4885253;29;20036;-84
2021/06/30 12:07:54;;;;;;;0.95;0.30;;;19.80;78.80;;;;;;4901070;29;20430;-83
2021/06/30 12:10:25;;;;;;;0.30;0.30;;;19.80;80.00;;;;;;4883344;29;20029;-88
2021/06/30 12:12:51;;;;;;;0.80;0.40;;;19.60;78.30;;;;;;4868316;29;20033;-85
2021/06/30 12:15:18;;;;;;;1.27;0.32;;;19.50;79.30;;;;;;4882353;29;20033;-85
2021/06/30 12:17:52;;;;;;;1.95;0.30;;;19.50;80.40;;;;;;4882714;29;20025;-86
2021/06/30 12:20:20;;;;;;;0.85;0.50;;;19.60;79.30;;;;;;4881633;29;20254;-86
2021/06/30 12:22:47;;;;;;;3.50;0.38;;;19.50;79.60;;;;;;4881090;29;20040;-88
2021/06/30 12:25:19;;;;;;;0.30;0.28;;;19.30;81.80;;;;;;4899253;29;20020;-81
2021/06/30 12:27:48;;;;;;;0.30;0.30;;;19.20;82.00;;;;;;4882212;29;20474;-89
2021/06/30 12:30:42;;;;;;;0.50;0.38;;;19.20;82.60;;;;;;4899990;29;20023;-85
2021/06/30 12:33:10;;;;;;;2.90;0.35;;;19.00;82.90;;;;;;4877029;29;20064;-84
2021/06/30 12:35:40;;;;;;;0.40;0.30;;;19.10;84.40;;;;;;4879909;29;20021;-83
2021/06/30 12:38:14;;;;;;;0.47;0.32;;;19.30;83.40;;;;;;4882058;29;20038;-85
2021/06/30 12:40:40;;;;;;;0.93;0.30;;;19.30;83.40;;;;;;4899059;29;20031;-82
2021/06/30 12:43:16;;;;;;;0.57;0.40;;;19.20;85.00;;;;;;4881242;29;20029;-81
2021/06/30 12:45:46;;;;;;;0.63;0.38;;;19.00;85.90;;;;;;4896883;29;20059;-82
2021/06/30 12:48:18;;;;;;;1.25;0.40;;;18.90;85.90;;;;;;4881546;29;20499;-82
2021/06/30 12:50:46;;;;;;;2.08;0.40;;;18.90;85.00;;;;;;4873440;29;20086;-82
2021/06/30 12:53:32;;;;;;;0.40;0.30;;;18.90;85.30;;;;;;4898072;29;20099;-87